sensor_id;sensor_type;location;lat;lon;timestamp;temperature;humidity
23827;DHT22;12094;50.822;4.376;2024-02-16T00:00:08;13.90;99.90
23827;DHT22;12094;50.822;4.376;2024-02-16T00:02:40;13.90;99.90
23827;DHT22;12094;50.822;4.376;2024-02-16T00:05:07;13.90;99.90
23827;DHT22;12094;50.822;4.376;2024-02-16T00:07:35;13.90;99.90
23827;DHT22;12094;50.822;4.376;2024-02-16T00:10:04;14.00;99.90
23827;DHT22;12094;50.822;4.376;2024-02-16T00:12:32;13.90;99.90
23827;DHT22;12094;50.822;4.376;2024-02-16T00:15:00;14.00;99.90
23827;DHT22;12094;50.822;4.376;2024-02-16T00:17:30;14.00;99.90
23827;DHT22;12094;50.822;4.376;2024-02-16T00:19:59;14.00;99.90
23827;DHT22;12094;50.822;4.376;2024-02-16T00:22:26;13.90;99.90
23827;DHT22;12094;50.822;4.376;2024-02-16T00:24:55;14.00;99.90
23827;DHT22;12094;50.822;4.376;2024-02-16T00:27:22;13.90;99.90
23827;DHT22;12094;50.822;4.376;2024-02-16T00:29:50;13.90;99.90
23827;DHT22;12094;50.822;4.376;2024-02-16T00:32:19;13.90;99.90
23827;DHT22;12094;50.822;4.376;2024-02-16T00:34:46;14.00;99.90
23827;DHT22;12094;50.822;4.376;2024-02-16T00:37:13;13.90;99.90
23827;DHT22;12094;50.822;4.376;2024-02-16T00:39:40;13.90;99.90
23827;DHT22;12094;50.822;4.376;2024-02-16T00:42:07;13.90;99.90
23827;DHT22;12094;50.822;4.376;2024-02-16T00:44:35;13.90;99.90
23827;DHT22;12094;50.822;4.376;2024-02-16T00:47:03;13.90;99.90
23827;DHT22;12094;50.822;4.376;2024-02-16T00:49:32;13.90;99.90
23827;DHT22;12094;50.822;4.376;2024-02-16T00:52:01;13.90;99.90
23827;DHT22;12094;50.822;4.376;2024-02-16T00:54:28;13.90;99.90
23827;DHT22;12094;50.822;4.376;2024-02-16T00:56:55;13.90;99.90
23827;DHT22;12094;50.822;4.376;2024-02-16T00:59:28;13.90;99.90
23827;DHT22;12094;50.822;4.376;2024-02-16T01:01:56;13.90;99.90
23827;DHT22;12094;50.822;4.376;2024-02-16T01:04:23;13.90;99.90
23827;DHT22;12094;50.822;4.376;2024-02-16T01:06:50;13.90;99.90
23827;DHT22;12094;50.822;4.376;2024-02-16T01:09:18;13.90;99.90
23827;DHT22;12094;50.822;4.376;2024-02-16T01:11:45;13.90;99.90
23827;DHT22;12094;50.822;4.376;2024-02-16T01:14:14;13.80;99.90
23827;DHT22;12094;50.822;4.376;2024-02-16T01:16:41;13.80;99.90
23827;DHT22;12094;50.822;4.376;2024-02-16T01:19:08;13.80;99.90
23827;DHT22;12094;50.822;4.376;2024-02-16T01:21:36;13.80;99.90
23827;DHT22;12094;50.822;4.376;2024-02-16T01:24:04;13.90;99.90
23827;DHT22;12094;50.822;4.376;2024-02-16T01:26:31;13.90;99.90
23827;DHT22;12094;50.822;4.376;2024-02-16T01:28:59;13.90;99.90
23827;DHT22;12094;50.822;4.376;2024-02-16T01:31:26;13.90;99.90
23827;DHT22;12094;50.822;4.376;2024-02-16T01:33:53;13.90;99.90
23827;DHT22;12094;50.822;4.376;2024-02-16T01:36:21;13.90;99.90
23827;DHT22;12094;50.822;4.376;2024-02-16T01:38:48;13.90;99.90
23827;DHT22;12094;50.822;4.376;2024-02-16T01:41:16;13.90;99.90
23827;DHT22;12094;50.822;4.376;2024-02-16T01:43:44;13.80;99.90
23827;DHT22;12094;50.822;4.376;2024-02-16T01:46:11;13.90;99.90
23827;DHT22;12094;50.822;4.376;2024-02-16T01:48:39;13.90;99.90
23827;DHT22;12094;50.822;4.376;2024-02-16T01:51:08;13.80;99.90
23827;DHT22;12094;50.822;4.376;2024-02-16T01:53:35;13.90;99.90
23827;DHT22;12094;50.822;4.376;2024-02-16T01:56:09;13.90;99.90
23827;DHT22;12094;50.822;4.376;2024-02-16T01:58:38;13.80;99.90
23827;DHT22;12094;50.822;4.376;2024-02-16T02:01:05;13.80;99.90
23827;DHT22;12094;50.822;4.376;2024-02-16T02:03:36;13.80;99.90
23827;DHT22;12094;50.822;4.376;2024-02-16T02:06:03;13.80;99.90
23827;DHT22;12094;50.822;4.376;2024-02-16T02:08:31;13.80;99.90
23827;DHT22;12094;50.822;4.376;2024-02-16T02:13:30;13.80;99.90
23827;DHT22;12094;50.822;4.376;2024-02-16T02:15:57;13.80;99.90
23827;DHT22;12094;50.822;4.376;2024-02-16T02:18:25;13.80;99.90
23827;DHT22;12094;50.822;4.376;2024-02-16T02:20:55;13.80;99.90
23827;DHT22;12094;50.822;4.376;2024-02-16T02:23:25;13.80;99.90
23827;DHT22;12094;50.822;4.376;2024-02-16T02:25:56;13.80;99.90
23827;DHT22;12094;50.822;4.376;2024-02-16T02:28:23;13.90;99.90
23827;DHT22;12094;50.822;4.376;2024-02-16T02:30:51;13.90;99.90
23827;DHT22;12094;50.822;4.376;2024-02-16T02:33:21;13.90;99.90
23827;DHT22;12094;50.822;4.376;2024-02-16T02:35:48;13.90;99.90
23827;DHT22;12094;50.822;4.376;2024-02-16T02:38:16;13.90;99.90
23827;DHT22;12094;50.822;4.376;2024-02-16T02:40:44;13.90;99.90
23827;DHT22;12094;50.822;4.376;2024-02-16T02:43:12;14.00;99.90
23827;DHT22;12094;50.822;4.376;2024-02-16T02:45:45;14.00;99.90
23827;DHT22;12094;50.822;4.376;2024-02-16T02:48:13;14.10;99.90
23827;DHT22;12094;50.822;4.376;2024-02-16T02:50:43;14.00;99.90
23827;DHT22;12094;50.822;4.376;2024-02-16T02:55:41;14.10;99.90
23827;DHT22;12094;50.822;4.376;2024-02-16T02:58:09;14.10;99.90
23827;DHT22;12094;50.822;4.376;2024-02-16T03:00:37;14.10;99.90
23827;DHT22;12094;50.822;4.376;2024-02-16T03:03:05;14.10;99.90
23827;DHT22;12094;50.822;4.376;2024-02-16T03:05:37;14.10;99.90
23827;DHT22;12094;50.822;4.376;2024-02-16T03:08:04;14.00;99.90
23827;DHT22;12094;50.822;4.376;2024-02-16T03:10:32;14.00;99.90
23827;DHT22;12094;50.822;4.376;2024-02-16T03:13:01;14.00;99.90
23827;DHT22;12094;50.822;4.376;2024-02-16T03:15:29;14.00;99.90
23827;DHT22;12094;50.822;4.376;2024-02-16T03:17:57;14.00;99.90
23827;DHT22;12094;50.822;4.376;2024-02-16T03:20:28;14.00;99.90
23827;DHT22;12094;50.822;4.376;2024-02-16T03:22:56;13.90;99.90
23827;DHT22;12094;50.822;4.376;2024-02-16T03:25:23;13.90;99.90
23827;DHT22;12094;50.822;4.376;2024-02-16T03:27:51;13.90;99.90
23827;DHT22;12094;50.822;4.376;2024-02-16T03:30:19;13.90;99.90
23827;DHT22;12094;50.822;4.376;2024-02-16T03:32:50;13.90;99.90
23827;DHT22;12094;50.822;4.376;2024-02-16T03:35:18;13.90;99.90
23827;DHT22;12094;50.822;4.376;2024-02-16T03:37:45;13.90;99.90
23827;DHT22;12094;50.822;4.376;2024-02-16T03:40:12;13.90;99.90
23827;DHT22;12094;50.822;4.376;2024-02-16T03:42:39;13.90;99.90
23827;DHT22;12094;50.822;4.376;2024-02-16T03:45:07;13.90;99.90
23827;DHT22;12094;50.822;4.376;2024-02-16T03:47:35;14.00;99.90
23827;DHT22;12094;50.822;4.376;2024-02-16T03:50:03;13.90;99.90
23827;DHT22;12094;50.822;4.376;2024-02-16T03:52:30;13.90;99.90
23827;DHT22;12094;50.822;4.376;2024-02-16T03:54:57;13.90;99.90
23827;DHT22;12094;50.822;4.376;2024-02-16T03:57:25;13.90;99.90
23827;DHT22;12094;50.822;4.376;2024-02-16T03:59:53;14.00;99.90
23827;DHT22;12094;50.822;4.376;2024-02-16T04:02:21;14.00;99.90
23827;DHT22;12094;50.822;4.376;2024-02-16T04:04:50;14.00;99.90
23827;DHT22;12094;50.822;4.376;2024-02-16T04:07:17;14.00;99.90
23827;DHT22;12094;50.822;4.376;2024-02-16T04:09:44;14.00;99.90
23827;DHT22;12094;50.822;4.376;2024-02-16T04:12:12;14.10;99.90
23827;DHT22;12094;50.822;4.376;2024-02-16T04:14:39;14.10;99.90
23827;DHT22;12094;50.822;4.376;2024-02-16T04:17:06;14.10;99.90
23827;DHT22;12094;50.822;4.376;2024-02-16T04:19:33;14.10;99.90
23827;DHT22;12094;50.822;4.376;2024-02-16T04:22:00;14.20;99.90
23827;DHT22;12094;50.822;4.376;2024-02-16T04:24:30;14.20;99.90
23827;DHT22;12094;50.822;4.376;2024-02-16T04:26:57;14.20;99.90
23827;DHT22;12094;50.822;4.376;2024-02-16T04:29:25;14.20;99.90
23827;DHT22;12094;50.822;4.376;2024-02-16T04:31:52;14.10;99.90
23827;DHT22;12094;50.822;4.376;2024-02-16T04:34:20;14.10;99.90
23827;DHT22;12094;50.822;4.376;2024-02-16T04:36:47;14.20;99.90
23827;DHT22;12094;50.822;4.376;2024-02-16T04:39:14;14.20;99.90
23827;DHT22;12094;50.822;4.376;2024-02-16T04:41:42;14.20;99.90
23827;DHT22;12094;50.822;4.376;2024-02-16T04:44:10;14.20;99.90
23827;DHT22;12094;50.822;4.376;2024-02-16T04:46:38;14.20;99.90
23827;DHT22;12094;50.822;4.376;2024-02-16T04:49:05;14.30;99.90
23827;DHT22;12094;50.822;4.376;2024-02-16T04:51:33;14.30;99.90
23827;DHT22;12094;50.822;4.376;2024-02-16T04:54:01;14.30;99.90
23827;DHT22;12094;50.822;4.376;2024-02-16T04:56:28;14.30;99.90
23827;DHT22;12094;50.822;4.376;2024-02-16T04:58:55;14.40;99.90
23827;DHT22;12094;50.822;4.376;2024-02-16T05:01:25;14.40;99.90
23827;DHT22;12094;50.822;4.376;2024-02-16T05:03:53;14.40;99.90
23827;DHT22;12094;50.822;4.376;2024-02-16T05:06:20;14.40;99.90
23827;DHT22;12094;50.822;4.376;2024-02-16T05:08:47;14.40;99.90
23827;DHT22;12094;50.822;4.376;2024-02-16T05:11:14;14.40;99.90
23827;DHT22;12094;50.822;4.376;2024-02-16T05:13:41;14.40;99.90
23827;DHT22;12094;50.822;4.376;2024-02-16T05:16:09;14.50;99.90
23827;DHT22;12094;50.822;4.376;2024-02-16T05:18:38;14.50;99.90
23827;DHT22;12094;50.822;4.376;2024-02-16T05:21:08;14.50;99.90
23827;DHT22;12094;50.822;4.376;2024-02-16T05:23:36;14.50;99.90
23827;DHT22;12094;50.822;4.376;2024-02-16T05:26:04;14.50;99.90
23827;DHT22;12094;50.822;4.376;2024-02-16T05:28:31;14.50;99.90
23827;DHT22;12094;50.822;4.376;2024-02-16T05:31:05;14.60;99.90
23827;DHT22;12094;50.822;4.376;2024-02-16T05:33:41;14.60;99.90
23827;DHT22;12094;50.822;4.376;2024-02-16T05:36:08;14.60;99.90
23827;DHT22;12094;50.822;4.376;2024-02-16T05:38:35;14.60;99.90
23827;DHT22;12094;50.822;4.376;2024-02-16T05:41:08;14.60;99.90
23827;DHT22;12094;50.822;4.376;2024-02-16T05:43:35;14.60;99.90
23827;DHT22;12094;50.822;4.376;2024-02-16T05:46:03;14.60;99.90
23827;DHT22;12094;50.822;4.376;2024-02-16T05:48:34;14.60;99.90
23827;DHT22;12094;50.822;4.376;2024-02-16T05:51:04;14.60;99.90
23827;DHT22;12094;50.822;4.376;2024-02-16T05:53:33;14.60;99.90
23827;DHT22;12094;50.822;4.376;2024-02-16T05:56:01;14.60;99.90
23827;DHT22;12094;50.822;4.376;2024-02-16T05:58:30;14.60;99.90
23827;DHT22;12094;50.822;4.376;2024-02-16T06:06:58;14.50;99.90
23827;DHT22;12094;50.822;4.376;2024-02-16T06:09:25;14.50;99.90
23827;DHT22;12094;50.822;4.376;2024-02-16T06:11:56;14.50;99.90
23827;DHT22;12094;50.822;4.376;2024-02-16T06:14:24;14.50;99.90
23827;DHT22;12094;50.822;4.376;2024-02-16T06:16:53;14.50;99.90
23827;DHT22;12094;50.822;4.376;2024-02-16T06:19:20;14.50;99.90
23827;DHT22;12094;50.822;4.376;2024-02-16T06:21:47;14.40;99.90
23827;DHT22;12094;50.822;4.376;2024-02-16T06:24:18;14.40;99.90
23827;DHT22;12094;50.822;4.376;2024-02-16T06:26:45;14.30;99.90
23827;DHT22;12094;50.822;4.376;2024-02-16T06:29:13;14.30;99.90
23827;DHT22;12094;50.822;4.376;2024-02-16T06:31:41;14.30;99.90
23827;DHT22;12094;50.822;4.376;2024-02-16T06:34:09;14.20;99.90
23827;DHT22;12094;50.822;4.376;2024-02-16T06:36:40;14.20;99.90
23827;DHT22;12094;50.822;4.376;2024-02-16T06:39:08;14.20;99.90
23827;DHT22;12094;50.822;4.376;2024-02-16T06:41:50;14.20;99.90
23827;DHT22;12094;50.822;4.376;2024-02-16T06:44:17;14.10;99.90
23827;DHT22;12094;50.822;4.376;2024-02-16T06:46:52;14.10;99.90
23827;DHT22;12094;50.822;4.376;2024-02-16T06:49:20;14.10;99.90
23827;DHT22;12094;50.822;4.376;2024-02-16T06:51:48;14.10;99.90
23827;DHT22;12094;50.822;4.376;2024-02-16T06:54:17;14.10;99.90
23827;DHT22;12094;50.822;4.376;2024-02-16T06:56:46;14.20;99.90
23827;DHT22;12094;50.822;4.376;2024-02-16T06:59:13;14.20;99.90
23827;DHT22;12094;50.822;4.376;2024-02-16T07:01:41;14.20;99.90
23827;DHT22;12094;50.822;4.376;2024-02-16T07:04:09;14.20;99.90
23827;DHT22;12094;50.822;4.376;2024-02-16T07:06:38;14.10;99.90
23827;DHT22;12094;50.822;4.376;2024-02-16T07:09:05;14.10;99.90
23827;DHT22;12094;50.822;4.376;2024-02-16T07:11:34;14.10;99.90
23827;DHT22;12094;50.822;4.376;2024-02-16T07:16:33;14.10;99.90
23827;DHT22;12094;50.822;4.376;2024-02-16T07:19:01;14.10;99.90
23827;DHT22;12094;50.822;4.376;2024-02-16T07:21:29;14.10;99.90
23827;DHT22;12094;50.822;4.376;2024-02-16T07:23:59;14.20;99.90
23827;DHT22;12094;50.822;4.376;2024-02-16T07:26:26;14.20;99.90
23827;DHT22;12094;50.822;4.376;2024-02-16T07:28:55;14.30;99.90
23827;DHT22;12094;50.822;4.376;2024-02-16T07:31:22;14.20;99.90
23827;DHT22;12094;50.822;4.376;2024-02-16T07:33:50;14.20;99.90
23827;DHT22;12094;50.822;4.376;2024-02-16T07:36:18;14.30;99.90
23827;DHT22;12094;50.822;4.376;2024-02-16T07:38:49;14.30;99.90
23827;DHT22;12094;50.822;4.376;2024-02-16T07:41:17;14.30;99.90
23827;DHT22;12094;50.822;4.376;2024-02-16T07:43:46;14.30;99.90
23827;DHT22;12094;50.822;4.376;2024-02-16T07:46:15;14.20;99.90
23827;DHT22;12094;50.822;4.376;2024-02-16T07:48:43;14.20;99.90
23827;DHT22;12094;50.822;4.376;2024-02-16T07:51:10;14.20;99.90
23827;DHT22;12094;50.822;4.376;2024-02-16T07:53:38;14.30;99.90
23827;DHT22;12094;50.822;4.376;2024-02-16T07:56:08;14.30;99.90
23827;DHT22;12094;50.822;4.376;2024-02-16T07:58:38;14.30;99.90
23827;DHT22;12094;50.822;4.376;2024-02-16T08:01:09;14.20;99.90
23827;DHT22;12094;50.822;4.376;2024-02-16T08:03:37;14.20;99.90
23827;DHT22;12094;50.822;4.376;2024-02-16T08:06:07;14.20;99.90
23827;DHT22;12094;50.822;4.376;2024-02-16T08:08:35;14.20;99.90
23827;DHT22;12094;50.822;4.376;2024-02-16T08:11:04;14.30;99.90
23827;DHT22;12094;50.822;4.376;2024-02-16T08:13:32;14.20;99.90
23827;DHT22;12094;50.822;4.376;2024-02-16T08:15:59;14.20;99.90
23827;DHT22;12094;50.822;4.376;2024-02-16T08:18:26;14.30;99.90
23827;DHT22;12094;50.822;4.376;2024-02-16T08:20:53;14.30;99.90
23827;DHT22;12094;50.822;4.376;2024-02-16T08:23:20;14.30;99.90
23827;DHT22;12094;50.822;4.376;2024-02-16T08:25:48;14.20;99.90
23827;DHT22;12094;50.822;4.376;2024-02-16T08:28:16;14.20;99.90
23827;DHT22;12094;50.822;4.376;2024-02-16T08:30:44;14.10;99.90
23827;DHT22;12094;50.822;4.376;2024-02-16T08:33:12;14.00;99.90
23827;DHT22;12094;50.822;4.376;2024-02-16T08:35:43;13.80;99.90
23827;DHT22;12094;50.822;4.376;2024-02-16T08:38:11;13.80;99.90
23827;DHT22;12094;50.822;4.376;2024-02-16T08:40:40;13.70;99.90
23827;DHT22;12094;50.822;4.376;2024-02-16T08:43:08;13.70;99.90
23827;DHT22;12094;50.822;4.376;2024-02-16T08:45:36;13.60;99.90
23827;DHT22;12094;50.822;4.376;2024-02-16T08:48:05;13.60;99.90
23827;DHT22;12094;50.822;4.376;2024-02-16T08:50:32;13.50;99.90
23827;DHT22;12094;50.822;4.376;2024-02-16T08:52:59;13.50;99.90
23827;DHT22;12094;50.822;4.376;2024-02-16T08:55:27;13.50;99.90
23827;DHT22;12094;50.822;4.376;2024-02-16T08:57:55;13.60;99.90
23827;DHT22;12094;50.822;4.376;2024-02-16T09:00:22;13.60;99.90
23827;DHT22;12094;50.822;4.376;2024-02-16T09:02:50;13.60;99.90
23827;DHT22;12094;50.822;4.376;2024-02-16T09:05:18;13.60;99.90
23827;DHT22;12094;50.822;4.376;2024-02-16T09:07:45;13.70;99.90
23827;DHT22;12094;50.822;4.376;2024-02-16T09:10:14;13.70;99.90
23827;DHT22;12094;50.822;4.376;2024-02-16T09:12:41;13.70;99.90
23827;DHT22;12094;50.822;4.376;2024-02-16T09:15:08;13.70;99.90
23827;DHT22;12094;50.822;4.376;2024-02-16T09:17:38;13.70;99.90
23827;DHT22;12094;50.822;4.376;2024-02-16T09:20:06;13.70;99.90
23827;DHT22;12094;50.822;4.376;2024-02-16T09:22:35;13.70;99.90
23827;DHT22;12094;50.822;4.376;2024-02-16T09:25:06;13.80;99.90
23827;DHT22;12094;50.822;4.376;2024-02-16T09:27:36;13.60;99.90
23827;DHT22;12094;50.822;4.376;2024-02-16T09:30:21;13.60;99.90
23827;DHT22;12094;50.822;4.376;2024-02-16T09:32:59;13.50;99.90
23827;DHT22;12094;50.822;4.376;2024-02-16T09:35:27;13.50;99.90
23827;DHT22;12094;50.822;4.376;2024-02-16T09:37:55;13.50;99.90
23827;DHT22;12094;50.822;4.376;2024-02-16T09:40:29;13.40;99.90
23827;DHT22;12094;50.822;4.376;2024-02-16T09:42:57;13.40;99.90
23827;DHT22;12094;50.822;4.376;2024-02-16T09:45:27;13.40;99.90
23827;DHT22;12094;50.822;4.376;2024-02-16T09:47:59;13.60;99.90
23827;DHT22;12094;50.822;4.376;2024-02-16T09:50:33;13.50;99.90
23827;DHT22;12094;50.822;4.376;2024-02-16T09:53:02;13.50;99.90
23827;DHT22;12094;50.822;4.376;2024-02-16T09:55:37;13.50;99.90
23827;DHT22;12094;50.822;4.376;2024-02-16T09:58:04;13.50;99.90
23827;DHT22;12094;50.822;4.376;2024-02-16T10:00:32;13.50;99.90
23827;DHT22;12094;50.822;4.376;2024-02-16T10:02:59;13.50;99.90
23827;DHT22;12094;50.822;4.376;2024-02-16T10:05:29;13.50;99.90
23827;DHT22;12094;50.822;4.376;2024-02-16T10:07:58;13.60;99.90
23827;DHT22;12094;50.822;4.376;2024-02-16T10:10:26;13.70;99.90
23827;DHT22;12094;50.822;4.376;2024-02-16T10:13:07;13.70;99.90
23827;DHT22;12094;50.822;4.376;2024-02-16T10:15:34;13.70;99.90
23827;DHT22;12094;50.822;4.376;2024-02-16T10:18:04;13.70;99.90
23827;DHT22;12094;50.822;4.376;2024-02-16T10:20:34;13.80;99.90
23827;DHT22;12094;50.822;4.376;2024-02-16T10:23:07;13.90;99.90
23827;DHT22;12094;50.822;4.376;2024-02-16T10:25:35;14.00;99.90
23827;DHT22;12094;50.822;4.376;2024-02-16T10:28:05;13.90;99.90
23827;DHT22;12094;50.822;4.376;2024-02-16T10:30:39;13.90;99.90
23827;DHT22;12094;50.822;4.376;2024-02-16T10:33:06;13.90;99.90
23827;DHT22;12094;50.822;4.376;2024-02-16T10:35:34;13.90;99.90
23827;DHT22;12094;50.822;4.376;2024-02-16T10:38:03;14.00;99.90
23827;DHT22;12094;50.822;4.376;2024-02-16T10:40:33;14.00;99.90
23827;DHT22;12094;50.822;4.376;2024-02-16T10:43:03;14.10;99.90
23827;DHT22;12094;50.822;4.376;2024-02-16T10:45:32;14.00;99.90
23827;DHT22;12094;50.822;4.376;2024-02-16T10:47:59;13.90;99.90
23827;DHT22;12094;50.822;4.376;2024-02-16T10:50:26;13.90;99.90
23827;DHT22;12094;50.822;4.376;2024-02-16T10:52:54;13.90;99.90
23827;DHT22;12094;50.822;4.376;2024-02-16T10:55:22;13.90;99.90
23827;DHT22;12094;50.822;4.376;2024-02-16T10:57:51;13.90;99.90
23827;DHT22;12094;50.822;4.376;2024-02-16T11:00:24;13.90;99.90
23827;DHT22;12094;50.822;4.376;2024-02-16T11:02:57;13.90;99.90
23827;DHT22;12094;50.822;4.376;2024-02-16T11:08:11;13.80;99.90
23827;DHT22;12094;50.822;4.376;2024-02-16T11:10:38;13.80;99.90
23827;DHT22;12094;50.822;4.376;2024-02-16T11:13:05;13.80;99.90
23827;DHT22;12094;50.822;4.376;2024-02-16T11:15:32;13.90;99.90
23827;DHT22;12094;50.822;4.376;2024-02-16T11:18:03;13.80;99.90
23827;DHT22;12094;50.822;4.376;2024-02-16T11:20:38;13.70;99.90
23827;DHT22;12094;50.822;4.376;2024-02-16T11:23:11;13.70;99.90
23827;DHT22;12094;50.822;4.376;2024-02-16T11:25:39;13.80;99.90
23827;DHT22;12094;50.822;4.376;2024-02-16T11:28:08;13.70;99.90
23827;DHT22;12094;50.822;4.376;2024-02-16T11:30:35;13.80;99.90
23827;DHT22;12094;50.822;4.376;2024-02-16T11:33:10;13.80;99.90
23827;DHT22;12094;50.822;4.376;2024-02-16T11:35:38;13.70;99.90
23827;DHT22;12094;50.822;4.376;2024-02-16T11:38:05;13.60;99.90
23827;DHT22;12094;50.822;4.376;2024-02-16T11:40:32;13.70;99.90
23827;DHT22;12094;50.822;4.376;2024-02-16T11:43:02;13.80;99.90
23827;DHT22;12094;50.822;4.376;2024-02-16T11:45:33;13.80;99.90
23827;DHT22;12094;50.822;4.376;2024-02-16T11:48:04;13.90;99.90
23827;DHT22;12094;50.822;4.376;2024-02-16T11:50:32;13.90;99.90
23827;DHT22;12094;50.822;4.376;2024-02-16T11:53:00;13.90;99.90
23827;DHT22;12094;50.822;4.376;2024-02-16T11:55:27;14.00;99.90
23827;DHT22;12094;50.822;4.376;2024-02-16T11:57:55;13.90;99.90
23827;DHT22;12094;50.822;4.376;2024-02-16T12:00:24;13.90;99.90
23827;DHT22;12094;50.822;4.376;2024-02-16T12:03:00;13.80;99.90
23827;DHT22;12094;50.822;4.376;2024-02-16T12:05:34;13.60;99.90
23827;DHT22;12094;50.822;4.376;2024-02-16T12:08:08;13.60;99.90
23827;DHT22;12094;50.822;4.376;2024-02-16T12:14:30;13.60;99.90
23827;DHT22;12094;50.822;4.376;2024-02-16T12:17:00;13.80;99.90
23827;DHT22;12094;50.822;4.376;2024-02-16T12:21:57;13.70;99.90
23827;DHT22;12094;50.822;4.376;2024-02-16T12:24:25;13.60;99.90
23827;DHT22;12094;50.822;4.376;2024-02-16T12:26:54;13.60;99.90
23827;DHT22;12094;50.822;4.376;2024-02-16T12:29:23;13.70;99.90
23827;DHT22;12094;50.822;4.376;2024-02-16T12:31:52;13.70;99.90
23827;DHT22;12094;50.822;4.376;2024-02-16T12:36:53;13.50;99.90
23827;DHT22;12094;50.822;4.376;2024-02-16T12:39:21;13.50;99.90
23827;DHT22;12094;50.822;4.376;2024-02-16T12:41:51;13.50;99.90
23827;DHT22;12094;50.822;4.376;2024-02-16T12:44:22;13.50;99.90
23827;DHT22;12094;50.822;4.376;2024-02-16T12:49:46;13.40;99.90
23827;DHT22;12094;50.822;4.376;2024-02-16T12:52:19;13.50;99.90
23827;DHT22;12094;50.822;4.376;2024-02-16T12:54:49;13.60;99.90
23827;DHT22;12094;50.822;4.376;2024-02-16T12:57:20;13.50;99.90
23827;DHT22;12094;50.822;4.376;2024-02-16T12:59:51;13.40;99.90
23827;DHT22;12094;50.822;4.376;2024-02-16T13:02:21;13.40;99.90
23827;DHT22;12094;50.822;4.376;2024-02-16T13:04:49;13.40;99.90
23827;DHT22;12094;50.822;4.376;2024-02-16T13:07:16;13.30;99.90
23827;DHT22;12094;50.822;4.376;2024-02-16T13:09:43;13.30;99.90
23827;DHT22;12094;50.822;4.376;2024-02-16T13:12:10;13.40;99.90
23827;DHT22;12094;50.822;4.376;2024-02-16T13:14:37;13.50;99.90
23827;DHT22;12094;50.822;4.376;2024-02-16T13:17:04;13.40;99.90
23827;DHT22;12094;50.822;4.376;2024-02-16T13:19:31;13.30;99.90
23827;DHT22;12094;50.822;4.376;2024-02-16T13:21:58;13.40;99.90
23827;DHT22;12094;50.822;4.376;2024-02-16T13:24:27;13.40;99.90
23827;DHT22;12094;50.822;4.376;2024-02-16T13:26:55;13.60;99.90
23827;DHT22;12094;50.822;4.376;2024-02-16T13:29:29;13.50;99.90
23827;DHT22;12094;50.822;4.376;2024-02-16T13:32:02;13.50;99.90
23827;DHT22;12094;50.822;4.376;2024-02-16T13:34:31;13.50;99.90
23827;DHT22;12094;50.822;4.376;2024-02-16T13:37:01;13.40;99.90
23827;DHT22;12094;50.822;4.376;2024-02-16T13:39:28;13.50;99.90
23827;DHT22;12094;50.822;4.376;2024-02-16T13:41:55;13.60;99.90
23827;DHT22;12094;50.822;4.376;2024-02-16T13:44:26;13.70;99.90
23827;DHT22;12094;50.822;4.376;2024-02-16T13:46:54;13.70;99.90
23827;DHT22;12094;50.822;4.376;2024-02-16T13:49:24;13.90;99.90
23827;DHT22;12094;50.822;4.376;2024-02-16T13:51:51;13.80;99.90
23827;DHT22;12094;50.822;4.376;2024-02-16T13:54:18;13.90;99.90
23827;DHT22;12094;50.822;4.376;2024-02-16T13:56:45;13.90;99.90
23827;DHT22;12094;50.822;4.376;2024-02-16T13:59:14;14.10;99.90
23827;DHT22;12094;50.822;4.376;2024-02-16T14:01:45;14.10;99.90
23827;DHT22;12094;50.822;4.376;2024-02-16T14:04:13;14.10;99.90
23827;DHT22;12094;50.822;4.376;2024-02-16T14:06:44;14.20;99.90
23827;DHT22;12094;50.822;4.376;2024-02-16T14:09:12;14.20;99.90
23827;DHT22;12094;50.822;4.376;2024-02-16T14:11:54;14.30;99.90
23827;DHT22;12094;50.822;4.376;2024-02-16T14:14:23;14.30;99.90
23827;DHT22;12094;50.822;4.376;2024-02-16T14:17:03;14.30;99.90
23827;DHT22;12094;50.822;4.376;2024-02-16T14:19:33;14.40;99.90
23827;DHT22;12094;50.822;4.376;2024-02-16T14:22:05;14.50;99.90
23827;DHT22;12094;50.822;4.376;2024-02-16T14:24:34;14.60;99.90
23827;DHT22;12094;50.822;4.376;2024-02-16T14:27:04;14.50;99.90
23827;DHT22;12094;50.822;4.376;2024-02-16T14:29:32;14.70;99.90
23827;DHT22;12094;50.822;4.376;2024-02-16T14:31:58;14.80;99.90
23827;DHT22;12094;50.822;4.376;2024-02-16T14:34:28;14.80;99.90
23827;DHT22;12094;50.822;4.376;2024-02-16T14:36:56;14.60;99.90
23827;DHT22;12094;50.822;4.376;2024-02-16T14:39:23;14.60;99.90
23827;DHT22;12094;50.822;4.376;2024-02-16T14:41:52;14.60;99.90
23827;DHT22;12094;50.822;4.376;2024-02-16T14:44:20;14.50;99.90
23827;DHT22;12094;50.822;4.376;2024-02-16T14:46:47;14.50;99.90
23827;DHT22;12094;50.822;4.376;2024-02-16T14:49:15;14.60;99.90
23827;DHT22;12094;50.822;4.376;2024-02-16T14:51:48;14.50;99.90
23827;DHT22;12094;50.822;4.376;2024-02-16T14:54:16;14.40;99.90
23827;DHT22;12094;50.822;4.376;2024-02-16T14:56:44;14.60;99.90
23827;DHT22;12094;50.822;4.376;2024-02-16T14:59:12;14.70;99.90
23827;DHT22;12094;50.822;4.376;2024-02-16T15:01:42;14.60;99.90
23827;DHT22;12094;50.822;4.376;2024-02-16T15:04:10;14.70;99.90
23827;DHT22;12094;50.822;4.376;2024-02-16T15:06:37;14.60;99.90
23827;DHT22;12094;50.822;4.376;2024-02-16T15:09:05;14.60;99.90
23827;DHT22;12094;50.822;4.376;2024-02-16T15:11:33;14.60;99.90
23827;DHT22;12094;50.822;4.376;2024-02-16T15:14:02;14.50;99.90
23827;DHT22;12094;50.822;4.376;2024-02-16T15:16:30;14.70;99.90
23827;DHT22;12094;50.822;4.376;2024-02-16T15:18:58;14.80;99.90
23827;DHT22;12094;50.822;4.376;2024-02-16T15:21:26;14.90;99.90
23827;DHT22;12094;50.822;4.376;2024-02-16T15:23:54;14.80;99.90
23827;DHT22;12094;50.822;4.376;2024-02-16T15:26:24;14.70;99.90
23827;DHT22;12094;50.822;4.376;2024-02-16T15:28:53;14.70;99.90
23827;DHT22;12094;50.822;4.376;2024-02-16T15:31:20;14.60;99.90
23827;DHT22;12094;50.822;4.376;2024-02-16T15:33:47;14.70;99.90
23827;DHT22;12094;50.822;4.376;2024-02-16T15:36:14;14.80;99.90
23827;DHT22;12094;50.822;4.376;2024-02-16T15:38:42;14.60;99.90
23827;DHT22;12094;50.822;4.376;2024-02-16T15:41:11;14.60;99.90
23827;DHT22;12094;50.822;4.376;2024-02-16T15:43:38;14.40;99.90
23827;DHT22;12094;50.822;4.376;2024-02-16T15:46:06;14.30;99.90
23827;DHT22;12094;50.822;4.376;2024-02-16T15:48:33;14.20;99.90
23827;DHT22;12094;50.822;4.376;2024-02-16T15:51:01;14.30;99.90
23827;DHT22;12094;50.822;4.376;2024-02-16T15:53:28;14.30;99.90
23827;DHT22;12094;50.822;4.376;2024-02-16T15:55:57;14.50;99.90
23827;DHT22;12094;50.822;4.376;2024-02-16T15:58:25;14.50;99.90
23827;DHT22;12094;50.822;4.376;2024-02-16T16:00:52;14.50;99.90
23827;DHT22;12094;50.822;4.376;2024-02-16T16:03:21;14.50;99.90
23827;DHT22;12094;50.822;4.376;2024-02-16T16:05:49;14.50;99.90